Time;durP1;ratioP1;P1;durP2;ratioP2;P2;SDS_P1;SDS_P2;PMS_P1;PMS_P2;Temp;Humidity;BMP_temperature;BMP_pressure;BME280_temperature;BME280_humidity;BME280_pressure;Samples;Min_cycle;Max_cycle;Signal;HPM_P1;HPM_P2
2022/10/19 00:00:48;;;;;;;10.47;4.90;;;11.80;99.90;;;;;;5117538;27;20195;-87
2022/10/19 00:03:17;;;;;;;9.13;4.37;;;11.80;99.90;;;;;;5116981;28;20215;-85
2022/10/19 00:05:44;;;;;;;11.60;4.90;;;11.70;99.90;;;;;;5116661;28;20637;-84
2022/10/19 00:08:11;;;;;;;9.30;4.10;;;11.70;99.90;;;;;;5116929;28;20222;-82
2022/10/19 00:10:40;;;;;;;10.60;4.60;;;11.70;99.90;;;;;;5117113;28;20234;-85
2022/10/19 00:13:08;;;;;;;10.10;4.50;;;11.60;99.90;;;;;;5111036;28;20628;-84
2022/10/19 00:15:40;;;;;;;9.30;4.67;;;11.60;99.90;;;;;;5096119;28;20214;-85
2022/10/19 00:18:08;;;;;;;11.73;4.80;;;11.60;99.90;;;;;;5095026;28;20210;-84
2022/10/19 00:20:36;;;;;;;9.13;4.77;;;11.60;99.90;;;;;;5096073;28;20200;-84
2022/10/19 00:23:04;;;;;;;9.17;4.73;;;11.60;99.90;;;;;;5097045;28;20670;-87
2022/10/19 00:25:35;;;;;;;10.67;5.00;;;11.60;99.90;;;;;;5096589;28;20211;-85
2022/10/19 00:28:04;;;;;;;11.80;6.50;;;11.60;99.90;;;;;;5096693;28;20225;-87
2022/10/19 00:30:30;;;;;;;8.97;5.60;;;11.80;99.90;;;;;;5096748;28;20224;-88
2022/10/19 00:32:59;;;;;;;9.23;4.73;;;11.70;99.90;;;;;;5095597;28;20203;-87
2022/10/19 00:35:27;;;;;;;10.33;5.10;;;11.60;99.90;;;;;;5096790;28;20816;-86
2022/10/19 00:37:55;;;;;;;12.30;5.30;;;11.50;99.90;;;;;;5096640;28;20186;-86
2022/10/19 00:40:23;;;;;;;11.37;5.00;;;11.50;99.90;;;;;;5096512;28;20210;-85
2022/10/19 00:42:54;;;;;;;13.00;5.23;;;11.30;99.90;;;;;;5096200;28;20212;-86
2022/10/19 00:45:23;;;;;;;10.38;5.50;;;11.40;99.90;;;;;;5096130;28;20782;-86
2022/10/19 00:47:50;;;;;;;15.33;5.90;;;11.40;99.90;;;;;;5096033;28;20209;-86
2022/10/19 00:50:21;;;;;;;11.30;5.17;;;11.50;99.90;;;;;;5096319;28;20203;-87
2022/10/19 00:52:49;;;;;;;10.73;5.13;;;11.70;99.90;;;;;;5096269;28;20210;-85
2022/10/19 00:55:17;;;;;;;15.37;5.77;;;11.70;99.90;;;;;;5096213;28;20224;-85
2022/10/19 00:57:44;;;;;;;9.50;5.13;;;11.60;99.90;;;;;;5095901;28;20569;-86
2022/10/19 01:00:17;;;;;;;10.10;4.80;;;11.70;99.90;;;;;;5096053;28;20195;-86
2022/10/19 01:02:45;;;;;;;14.40;5.03;;;11.80;99.90;;;;;;5095741;28;20229;-85
2022/10/19 01:05:13;;;;;;;9.20;4.83;;;11.80;99.90;;;;;;5095934;28;20204;-86
2022/10/19 01:07:43;;;;;;;11.73;5.47;;;11.90;99.90;;;;;;5095923;28;20217;-85
2022/10/19 01:10:12;;;;;;;12.23;5.77;;;11.70;99.90;;;;;;5095938;28;20211;-86
2022/10/19 01:12:55;;;;;;;13.57;6.07;;;11.60;99.90;;;;;;5095719;28;20216;-84
2022/10/19 01:15:31;;;;;;;16.50;6.60;;;11.50;99.90;;;;;;5094507;28;20480;-85
2022/10/19 01:18:07;;;;;;;10.77;5.27;;;11.50;99.90;;;;;;5094945;28;20211;-83
2022/10/19 01:21:14;;;;;;;12.37;5.33;;;11.50;99.90;;;;;;5095526;28;20204;-85
2022/10/19 01:24:08;;;;;;;10.80;5.53;;;11.30;99.90;;;;;;5095356;28;20203;-85
2022/10/19 01:27:09;;;;;;;13.83;5.20;;;11.40;99.90;;;;;;5095127;28;20216;-84
2022/10/19 01:30:02;;;;;;;11.63;5.20;;;11.20;99.90;;;;;;5095686;28;20195;-86
2022/10/19 01:32:44;;;;;;;12.40;5.30;;;11.30;99.90;;;;;;5094911;28;20231;-84
2022/10/19 01:35:18;;;;;;;15.63;6.20;;;11.40;99.90;;;;;;5096071;28;20192;-85
2022/10/19 01:37:49;;;;;;;11.13;5.87;;;11.30;99.90;;;;;;5095390;28;20196;-85
2022/10/19 01:40:26;;;;;;;16.43;5.50;;;11.40;99.90;;;;;;5095643;28;20194;-85
2022/10/19 01:42:59;;;;;;;16.33;6.30;;;11.30;99.90;;;;;;5094987;28;20504;-85
2022/10/19 01:45:33;;;;;;;13.93;5.97;;;11.30;99.90;;;;;;5093816;28;20197;-85
2022/10/19 01:48:04;;;;;;;12.60;5.77;;;11.20;99.90;;;;;;5094899;28;20635;-84
2022/10/19 01:50:40;;;;;;;11.87;5.97;;;11.10;99.90;;;;;;5093955;28;20652;-85
2022/10/19 01:53:11;;;;;;;12.57;6.00;;;11.10;99.90;;;;;;5095097;28;20194;-85
2022/10/19 01:55:47;;;;;;;10.40;5.50;;;11.00;99.90;;;;;;5094912;28;20218;-86
2022/10/19 01:58:18;;;;;;;17.07;6.03;;;11.20;99.90;;;;;;5094997;28;20202;-86
2022/10/19 02:00:50;;;;;;;11.87;5.90;;;11.10;99.90;;;;;;5095008;28;20202;-87
2022/10/19 02:03:19;;;;;;;11.03;6.13;;;11.00;99.90;;;;;;5094772;28;20641;-85
2022/10/19 02:05:48;;;;;;;13.20;6.00;;;11.10;99.90;;;;;;5095204;28;20191;-86
2022/10/19 02:08:20;;;;;;;16.50;7.20;;;11.00;99.90;;;;;;5094780;28;20232;-87
2022/10/19 02:10:49;;;;;;;13.93;5.93;;;11.00;99.90;;;;;;5094646;28;20192;-86
2022/10/19 02:13:17;;;;;;;7.80;5.87;;;10.90;99.90;;;;;;5094440;28;20216;-86
2022/10/19 02:15:49;;;;;;;13.37;5.87;;;10.90;99.90;;;;;;5094205;28;20209;-87
2022/10/19 02:18:21;;;;;;;11.90;6.00;;;11.10;99.90;;;;;;5094469;28;20206;-88
2022/10/19 02:20:48;;;;;;;11.23;6.20;;;11.10;99.90;;;;;;5094535;28;20634;-87
2022/10/19 02:23:20;;;;;;;12.53;5.90;;;11.10;99.90;;;;;;5094848;28;20206;-87
2022/10/19 02:25:47;;;;;;;14.20;6.67;;;11.20;99.90;;;;;;5094660;28;20210;-86
2022/10/19 02:28:14;;;;;;;14.50;5.80;;;11.00;99.90;;;;;;5094555;28;20206;-85
2022/10/19 02:30:41;;;;;;;16.00;6.10;;;10.90;99.90;;;;;;5094359;28;20596;-86
2022/10/19 02:33:11;;;;;;;11.17;5.90;;;10.90;99.90;;;;;;5094061;28;20242;-87
2022/10/19 02:35:39;;;;;;;12.23;6.33;;;10.90;99.90;;;;;;5094450;28;20231;-85
2022/10/19 02:38:09;;;;;;;17.30;6.63;;;10.90;99.90;;;;;;5094231;28;20190;-85
2022/10/19 02:40:53;;;;;;;12.00;5.93;;;10.90;99.90;;;;;;5093987;28;20197;-86
2022/10/19 02:43:22;;;;;;;14.90;7.28;;;10.90;99.90;;;;;;5092566;28;20481;-86
2022/10/19 02:45:54;;;;;;;16.57;5.90;;;10.90;99.90;;;;;;5094276;28;20206;-87
2022/10/19 02:48:24;;;;;;;13.93;6.70;;;11.00;99.90;;;;;;5094225;28;20203;-87
2022/10/19 02:50:51;;;;;;;15.20;6.30;;;11.00;99.90;;;;;;5093843;28;20705;-84
2022/10/19 02:53:18;;;;;;;14.80;6.40;;;11.00;99.90;;;;;;5093825;28;20225;-85
2022/10/19 02:55:48;;;;;;;12.40;6.03;;;10.90;99.90;;;;;;5093450;28;20226;-85
2022/10/19 02:58:15;;;;;;;12.73;6.20;;;10.90;99.90;;;;;;5093472;28;20196;-85
2022/10/19 03:00:42;;;;;;;15.23;6.53;;;10.90;99.90;;;;;;5093618;28;20669;-84
2022/10/19 03:03:10;;;;;;;12.70;7.00;;;10.90;99.90;;;;;;5094101;28;20199;-85
2022/10/19 03:05:39;;;;;;;16.53;7.03;;;10.90;99.90;;;;;;5093760;28;20197;-86
2022/10/19 03:08:08;;;;;;;17.40;6.40;;;10.80;99.90;;;;;;5092239;28;20737;-84
2022/10/19 03:10:35;;;;;;;17.57;6.53;;;10.80;99.90;;;;;;5093919;28;20205;-85
2022/10/19 03:13:01;;;;;;;19.73;8.13;;;10.80;99.90;;;;;;5093177;28;20230;-83
2022/10/19 03:15:28;;;;;;;12.03;6.53;;;10.90;99.90;;;;;;5093109;28;20284;-87
2022/10/19 03:17:58;;;;;;;20.23;7.30;;;10.80;99.90;;;;;;5093655;28;20715;-86
2022/10/19 03:20:25;;;;;;;17.83;7.13;;;10.90;99.90;;;;;;5093539;28;20220;-85
2022/10/19 03:22:53;;;;;;;16.60;7.43;;;10.90;99.90;;;;;;5093056;28;20207;-84
2022/10/19 03:25:20;;;;;;;17.87;6.63;;;10.80;99.90;;;;;;5092834;28;20209;-87
2022/10/19 03:27:47;;;;;;;16.80;7.07;;;10.90;99.90;;;;;;5093181;28;20205;-85
2022/10/19 03:30:13;;;;;;;12.40;6.53;;;11.00;99.90;;;;;;5093376;28;20197;-86
2022/10/19 03:32:40;;;;;;;22.03;7.57;;;10.70;99.90;;;;;;5092730;28;20233;-86
2022/10/19 03:35:08;;;;;;;12.47;6.27;;;10.50;99.90;;;;;;5093132;28;20272;-85
2022/10/19 03:37:35;;;;;;;14.50;6.23;;;10.60;99.90;;;;;;5093788;28;20204;-85
2022/10/19 03:40:04;;;;;;;18.60;7.03;;;10.60;99.90;;;;;;5093073;28;20195;-84
2022/10/19 03:42:31;;;;;;;15.20;7.07;;;10.60;99.90;;;;;;5092944;28;20207;-85
2022/10/19 03:44:58;;;;;;;14.70;7.00;;;10.70;99.90;;;;;;5092947;28;20205;-83
2022/10/19 03:47:25;;;;;;;18.40;6.47;;;10.60;99.90;;;;;;5093095;28;20194;-85
2022/10/19 03:49:53;;;;;;;14.10;6.47;;;10.50;99.90;;;;;;5093272;28;20209;-84
2022/10/19 03:52:20;;;;;;;17.53;6.50;;;10.50;99.90;;;;;;5092574;28;20236;-85
2022/10/19 03:54:50;;;;;;;21.90;7.00;;;10.60;99.90;;;;;;5092566;28;20222;-86
2022/10/19 03:57:19;;;;;;;18.93;7.07;;;10.70;99.90;;;;;;5092416;28;20194;-84
2022/10/19 03:59:46;;;;;;;13.50;6.63;;;10.70;99.90;;;;;;5092685;28;20201;-85
2022/10/19 04:02:13;;;;;;;14.23;6.57;;;10.60;99.90;;;;;;5092522;28;20213;-82
2022/10/19 04:04:41;;;;;;;17.30;7.13;;;10.50;99.90;;;;;;5092929;28;20206;-86
2022/10/19 04:07:07;;;;;;;14.03;6.50;;;10.40;99.90;;;;;;5092766;28;20211;-83
2022/10/19 04:09:34;;;;;;;16.37;6.70;;;10.40;99.90;;;;;;5095942;28;20207;-84
2022/10/19 04:12:01;;;;;;;12.57;6.60;;;10.40;99.90;;;;;;5096296;28;20221;-83
2022/10/19 04:14:29;;;;;;;15.80;8.17;;;10.50;99.90;;;;;;5097134;28;20534;-82
2022/10/19 04:17:01;;;;;;;19.13;7.57;;;10.50;99.90;;;;;;5096474;28;20208;-85
2022/10/19 04:19:30;;;;;;;16.57;7.33;;;10.50;99.90;;;;;;5096379;28;20665;-84
2022/10/19 04:21:57;;;;;;;14.33;7.03;;;10.50;99.90;;;;;;5096310;28;20220;-84
2022/10/19 04:24:25;;;;;;;20.83;7.50;;;10.60;99.90;;;;;;5096592;28;20209;-83
2022/10/19 04:26:54;;;;;;;16.50;7.30;;;10.60;99.90;;;;;;5096704;28;20197;-83
2022/10/19 04:29:23;;;;;;;20.93;7.20;;;10.40;99.90;;;;;;5096301;28;20197;-83
2022/10/19 04:31:52;;;;;;;15.00;7.17;;;10.40;99.90;;;;;;5096236;28;20226;-85
2022/10/19 04:34:21;;;;;;;12.03;7.57;;;10.50;99.90;;;;;;5096464;28;20196;-83
2022/10/19 04:36:49;;;;;;;15.37;6.40;;;10.40;99.90;;;;;;5096023;28;20229;-83
2022/10/19 04:39:16;;;;;;;21.83;7.73;;;10.40;99.90;;;;;;5095996;28;20553;-83
2022/10/19 04:41:43;;;;;;;18.95;8.93;;;10.40;99.90;;;;;;5095556;28;20430;-84
2022/10/19 04:44:10;;;;;;;15.17;7.90;;;10.40;99.90;;;;;;5095683;28;20202;-82
2022/10/19 04:46:37;;;;;;;19.73;8.00;;;10.60;99.90;;;;;;5096046;28;20194;-83
2022/10/19 04:49:06;;;;;;;14.20;7.30;;;10.60;99.90;;;;;;5096151;28;20185;-84
2022/10/19 04:51:33;;;;;;;14.03;7.50;;;10.40;99.90;;;;;;5096016;28;20205;-83
2022/10/19 04:54:01;;;;;;;14.03;7.27;;;10.40;99.90;;;;;;5095202;28;20208;-83
2022/10/19 04:56:31;;;;;;;14.47;7.50;;;10.40;99.90;;;;;;5095595;28;20308;-84
2022/10/19 04:59:00;;;;;;;17.97;8.90;;;10.30;99.90;;;;;;5096155;28;20297;-82
2022/10/19 05:01:28;;;;;;;18.50;8.80;;;10.40;99.90;;;;;;5095438;28;20672;-81
2022/10/19 05:03:56;;;;;;;21.90;9.07;;;10.50;99.90;;;;;;5109275;28;20201;-86
2022/10/19 05:06:24;;;;;;;17.27;8.60;;;10.40;99.90;;;;;;5115150;28;20201;-83
2022/10/19 05:08:51;;;;;;;15.23;8.43;;;10.50;99.90;;;;;;5113802;28;20684;-84
2022/10/19 05:11:20;;;;;;;17.97;9.13;;;10.40;99.90;;;;;;5116050;27;20215;-86
2022/10/19 05:13:52;;;;;;;19.33;8.40;;;10.30;99.90;;;;;;5115619;28;20236;-85
2022/10/19 05:16:21;;;;;;;16.37;8.23;;;10.30;99.90;;;;;;5116176;28;20197;-84
2022/10/19 05:18:49;;;;;;;13.43;8.17;;;10.10;99.90;;;;;;5115455;28;20665;-83
2022/10/19 05:21:16;;;;;;;15.37;8.83;;;10.10;99.90;;;;;;5115655;28;20246;-84
2022/10/19 05:23:45;;;;;;;15.53;8.77;;;10.10;99.90;;;;;;5115602;28;20201;-86
2022/10/19 05:26:14;;;;;;;19.33;8.87;;;10.10;99.90;;;;;;5115986;27;20193;-85
2022/10/19 05:28:42;;;;;;;18.87;8.87;;;10.20;99.90;;;;;;5115967;28;20641;-86
2022/10/19 05:31:11;;;;;;;20.13;8.40;;;10.00;99.90;;;;;;5115807;28;20204;-85
2022/10/19 05:33:39;;;;;;;14.83;8.77;;;10.10;99.90;;;;;;5115709;28;20239;-86
2022/10/19 05:36:17;;;;;;;18.43;8.53;;;10.10;99.90;;;;;;5115961;28;20201;-86
2022/10/19 05:38:47;;;;;;;15.73;8.50;;;10.10;99.90;;;;;;5115426;28;20196;-82
2022/10/19 05:41:16;;;;;;;17.50;8.80;;;10.10;99.90;;;;;;5115533;28;20189;-84
2022/10/19 05:43:43;;;;;;;16.37;9.43;;;10.10;99.90;;;;;;5115281;28;20202;-85
2022/10/19 05:46:12;;;;;;;21.20;9.47;;;10.10;99.90;;;;;;5115373;28;20204;-86
2022/10/19 05:48:41;;;;;;;17.47;9.63;;;10.00;99.90;;;;;;5114969;28;20192;-86
2022/10/19 05:51:10;;;;;;;19.77;9.43;;;10.10;99.90;;;;;;5115293;28;20189;-84
2022/10/19 05:53:37;;;;;;;29.17;9.80;;;10.10;99.90;;;;;;5114451;28;20243;-84
2022/10/19 05:56:07;;;;;;;21.23;8.87;;;10.20;99.90;;;;;;5115087;28;20220;-84
2022/10/19 05:58:37;;;;;;;18.00;9.30;;;10.20;99.90;;;;;;5114823;28;20574;-84
2022/10/19 06:01:04;;;;;;;18.47;9.90;;;10.20;99.90;;;;;;5114663;28;20209;-83
2022/10/19 06:03:32;;;;;;;21.00;9.40;;;10.10;99.90;;;;;;5114607;28;20203;-84
2022/10/19 06:06:03;;;;;;;23.27;10.30;;;10.00;99.90;;;;;;5114815;28;20195;-83
2022/10/19 06:08:29;;;;;;;19.37;9.30;;;10.10;99.90;;;;;;5114615;28;20598;-84
2022/10/19 06:11:06;;;;;;;18.80;10.00;;;10.20;99.90;;;;;;5114264;28;20270;-85
2022/10/19 06:13:35;;;;;;;24.37;10.53;;;10.30;99.90;;;;;;5111225;28;20686;-86
2022/10/19 06:16:02;;;;;;;15.30;9.37;;;10.30;99.90;;;;;;5114508;28;20200;-85
2022/10/19 06:18:29;;;;;;;20.00;9.77;;;10.20;99.90;;;;;;5114162;28;20197;-85
2022/10/19 06:20:56;;;;;;;20.13;9.57;;;10.20;99.90;;;;;;5114695;28;20181;-84
2022/10/19 06:23:22;;;;;;;18.50;10.53;;;10.10;99.90;;;;;;5114722;28;20200;-86
2022/10/19 06:25:49;;;;;;;18.07;9.80;;;10.10;99.90;;;;;;5114211;28;20207;-83
2022/10/19 06:28:17;;;;;;;26.00;10.43;;;10.10;99.90;;;;;;5113803;28;20539;-81
2022/10/19 06:30:44;;;;;;;19.43;10.27;;;10.20;99.90;;;;;;5113534;28;20193;-83
2022/10/19 06:33:11;;;;;;;18.00;9.50;;;10.30;99.90;;;;;;5113983;28;20683;-85
2022/10/19 06:35:41;;;;;;;20.10;9.77;;;10.20;99.90;;;;;;5113939;28;20199;-85
2022/10/19 06:38:08;;;;;;;25.70;10.53;;;10.10;99.90;;;;;;5114737;28;20231;-85
2022/10/19 06:40:36;;;;;;;18.63;9.57;;;10.20;99.90;;;;;;5114315;28;20200;-85
2022/10/19 06:43:05;;;;;;;19.00;9.97;;;10.20;99.90;;;;;;5114323;28;20205;-84
2022/10/19 06:45:33;;;;;;;20.03;10.13;;;10.00;99.90;;;;;;5114334;28;20200;-85
2022/10/19 06:48:00;;;;;;;20.13;9.90;;;9.90;99.90;;;;;;5114378;28;20215;-86
2022/10/19 06:50:27;;;;;;;21.77;10.37;;;9.80;99.90;;;;;;5113477;28;20201;-84
2022/10/19 06:52:54;;;;;;;20.40;10.73;;;9.90;99.90;;;;;;5114219;28;20233;-83
2022/10/19 06:55:21;;;;;;;20.17;9.77;;;9.90;99.90;;;;;;5114232;28;20216;-85
2022/10/19 06:57:48;;;;;;;20.93;10.27;;;10.00;99.90;;;;;;5114321;28;20208;-84
2022/10/19 07:00:15;;;;;;;16.37;10.33;;;10.10;99.90;;;;;;5113845;28;20205;-85
2022/10/19 07:02:44;;;;;;;20.63;10.53;;;10.20;99.90;;;;;;5113616;28;20561;-85
2022/10/19 07:05:10;;;;;;;21.77;10.10;;;10.30;99.90;;;;;;5112310;28;20208;-85
2022/10/19 07:07:37;;;;;;;20.80;10.77;;;10.20;99.90;;;;;;5112427;28;20209;-84
2022/10/19 07:10:05;;;;;;;21.33;10.77;;;10.30;99.90;;;;;;5113535;28;20511;-85
2022/10/19 07:12:31;;;;;;;16.27;9.80;;;10.50;99.90;;;;;;5112395;28;20186;-85
2022/10/19 07:14:58;;;;;;;18.97;9.80;;;10.50;99.90;;;;;;5112718;28;20586;-85
2022/10/19 07:17:25;;;;;;;17.30;10.00;;;10.50;99.90;;;;;;5112966;28;20189;-85
2022/10/19 07:19:53;;;;;;;21.93;9.87;;;10.60;99.90;;;;;;5112618;28;20193;-85
2022/10/19 07:22:20;;;;;;;14.97;9.47;;;10.40;99.90;;;;;;5112630;28;20244;-84
2022/10/19 07:24:48;;;;;;;22.20;11.27;;;10.50;99.90;;;;;;5112860;28;20202;-85
2022/10/19 07:27:15;;;;;;;21.63;10.10;;;10.50;99.90;;;;;;5112963;28;20193;-87
2022/10/19 07:29:43;;;;;;;21.90;10.27;;;10.60;99.90;;;;;;5112094;28;20202;-86
2022/10/19 07:32:15;;;;;;;18.83;9.97;;;10.70;99.90;;;;;;5113699;28;20196;-85
2022/10/19 07:34:42;;;;;;;22.87;10.57;;;10.50;99.90;;;;;;5113256;28;20223;-86
2022/10/19 07:37:11;;;;;;;19.57;10.03;;;10.40;99.90;;;;;;5112285;28;20656;-86
2022/10/19 07:39:37;;;;;;;20.15;11.52;;;10.50;99.90;;;;;;5112999;28;20835;-87
2022/10/19 07:42:06;;;;;;;18.50;10.33;;;10.50;99.90;;;;;;5116382;28;20187;-89
2022/10/19 07:44:39;;;;;;;18.33;10.43;;;10.60;99.90;;;;;;5118166;28;20217;-86
2022/10/19 07:47:06;;;;;;;17.53;10.97;;;10.60;99.90;;;;;;5116881;28;20210;-87
2022/10/19 07:49:32;;;;;;;15.97;10.30;;;10.60;99.90;;;;;;5116729;28;20206;-87
2022/10/19 07:51:59;;;;;;;24.83;11.00;;;10.60;99.90;;;;;;5117813;28;20201;-88
2022/10/19 07:54:27;;;;;;;15.87;10.70;;;10.50;99.90;;;;;;5117467;27;20224;-86
2022/10/19 07:56:54;;;;;;;19.07;10.47;;;10.60;99.90;;;;;;5116934;28;20199;-86
2022/10/19 07:59:21;;;;;;;16.83;9.90;;;10.70;99.90;;;;;;5116532;28;20551;-86
2022/10/19 08:01:49;;;;;;;21.50;11.03;;;10.80;99.90;;;;;;5117277;28;20201;-86
2022/10/19 08:04:17;;;;;;;20.37;10.30;;;10.70;99.90;;;;;;5116985;28;20275;-86
2022/10/19 08:06:44;;;;;;;14.67;10.00;;;10.70;99.90;;;;;;5117364;28;20202;-86
2022/10/19 08:09:10;;;;;;;18.50;11.13;;;10.90;99.90;;;;;;5116974;28;20429;-86
2022/10/19 08:11:39;;;;;;;16.00;10.57;;;10.90;99.90;;;;;;5117242;28;20213;-87
2022/10/19 08:14:06;;;;;;;22.87;11.03;;;11.00;99.90;;;;;;5117644;28;20317;-86
2022/10/19 08:16:36;;;;;;;16.57;9.97;;;10.90;99.90;;;;;;5116789;28;20659;-91
2022/10/19 08:19:05;;;;;;;24.77;11.70;;;11.00;99.90;;;;;;5117361;28;20201;-86
2022/10/19 08:21:32;;;;;;;19.73;10.23;;;11.00;99.90;;;;;;5114295;28;20197;-84
2022/10/19 08:24:00;;;;;;;20.10;10.20;;;11.20;99.90;;;;;;5114912;28;20660;-85
2022/10/19 08:26:28;;;;;;;15.80;10.17;;;11.20;99.90;;;;;;5116694;28;20213;-85
2022/10/19 08:29:00;;;;;;;19.33;10.63;;;11.30;99.90;;;;;;5116538;28;20198;-85
2022/10/19 08:31:27;;;;;;;17.53;10.77;;;11.40;99.90;;;;;;5116420;28;20193;-85
2022/10/19 08:33:54;;;;;;;23.40;10.30;;;11.40;99.90;;;;;;5115491;27;20231;-85
2022/10/19 08:36:21;;;;;;;15.50;9.73;;;11.60;99.90;;;;;;5115930;28;20706;-85
2022/10/19 08:38:49;;;;;;;17.20;9.60;;;11.50;99.90;;;;;;5116054;28;20198;-85
2022/10/19 08:41:22;;;;;;;15.13;8.50;;;11.50;99.90;;;;;;5115004;28;20542;-85
2022/10/19 08:44:08;;;;;;;14.60;8.80;;;11.60;99.90;;;;;;5116839;28;20213;-85
2022/10/19 08:46:45;;;;;;;16.60;9.37;;;11.60;99.90;;;;;;5116426;28;20214;-86
2022/10/19 08:49:18;;;;;;;13.80;8.80;;;11.60;99.90;;;;;;5124569;27;20178;-93
2022/10/19 08:51:50;;;;;;;15.90;9.33;;;11.70;99.90;;;;;;5133293;28;20190;-89
2022/10/19 08:54:18;;;;;;;18.60;9.73;;;11.70;99.90;;;;;;5121672;28;20218;-96
2022/10/19 08:56:52;;;;;;;19.87;9.87;;;11.90;99.90;;;;;;5120439;28;20206;-88
2022/10/19 08:59:34;;;;;;;16.43;9.53;;;12.20;99.90;;;;;;5116950;28;20191;-85
2022/10/19 09:02:08;;;;;;;16.40;9.70;;;12.20;99.90;;;;;;5116049;28;20199;-85
2022/10/19 09:04:38;;;;;;;18.57;8.73;;;12.30;99.90;;;;;;5116298;28;20219;-84
2022/10/19 09:07:24;;;;;;;17.27;9.13;;;12.40;99.90;;;;;;5115880;28;20214;-85
2022/10/19 09:09:57;;;;;;;18.07;8.77;;;12.40;99.90;;;;;;5115974;28;20207;-85
2022/10/19 09:12:33;;;;;;;18.47;9.17;;;12.40;99.90;;;;;;5116209;27;20208;-85
2022/10/19 09:15:05;;;;;;;18.30;9.53;;;12.50;99.90;;;;;;5114644;28;20578;-85
2022/10/19 09:17:33;;;;;;;12.83;9.23;;;12.60;99.90;;;;;;5115907;28;20196;-84
2022/10/19 09:20:15;;;;;;;16.10;9.20;;;12.80;99.90;;;;;;5115401;28;20208;-85
2022/10/19 09:22:43;;;;;;;19.37;8.87;;;12.80;99.90;;;;;;5115641;28;20211;-85
2022/10/19 09:25:15;;;;;;;14.10;8.90;;;12.80;99.90;;;;;;5115970;28;20207;-84
2022/10/19 09:27:45;;;;;;;20.73;9.43;;;12.80;99.90;;;;;;5116140;27;20199;-85
2022/10/19 09:30:18;;;;;;;19.87;8.97;;;12.80;99.90;;;;;;5116797;28;20192;-87
2022/10/19 09:32:45;;;;;;;12.27;7.77;;;12.90;99.90;;;;;;5116399;28;20212;-87
2022/10/19 09:35:28;;;;;;;22.57;8.20;;;13.00;99.90;;;;;;5115944;28;20220;-85
2022/10/19 09:37:56;;;;;;;11.80;7.97;;;13.20;99.90;;;;;;5116087;28;20215;-87
2022/10/19 09:40:24;;;;;;;16.20;7.73;;;13.30;99.90;;;;;;5116259;27;20209;-85
2022/10/19 09:42:56;;;;;;;14.40;7.20;;;13.20;99.90;;;;;;5115703;28;20676;-85
2022/10/19 09:45:34;;;;;;;14.90;7.30;;;13.20;99.90;;;;;;5115902;28;20208;-85
2022/10/19 09:48:04;;;;;;;12.90;6.97;;;13.30;99.90;;;;;;5115982;28;20200;-85
2022/10/19 09:50:31;;;;;;;13.80;6.90;;;13.40;99.90;;;;;;5115586;28;20205;-85
2022/10/19 09:53:03;;;;;;;18.70;7.57;;;13.50;99.90;;;;;;5115621;28;20636;-84
2022/10/19 09:55:38;;;;;;;12.93;7.50;;;13.60;99.90;;;;;;5115574;28;20232;-85
2022/10/19 09:58:15;;;;;;;14.70;7.63;;;13.60;99.90;;;;;;5115634;28;20196;-90
2022/10/19 10:00:47;;;;;;;14.17;7.17;;;13.80;99.90;;;;;;5115760;28;20196;-88
2022/10/19 10:03:26;;;;;;;15.00;7.57;;;13.70;99.90;;;;;;5115939;28;20197;-89
2022/10/19 10:05:55;;;;;;;18.93;7.80;;;13.80;99.90;;;;;;5117489;28;20208;-87
2022/10/19 10:08:26;;;;;;;12.83;7.10;;;13.90;99.90;;;;;;5116509;28;20227;-92
2022/10/19 10:11:10;;;;;;;14.60;8.05;;;14.00;99.90;;;;;;5120861;28;20433;-94
2022/10/19 10:13:40;;;;;;;12.67;7.77;;;14.10;99.90;;;;;;5126948;28;20231;-87
2022/10/19 10:16:15;;;;;;;11.87;6.23;;;14.00;99.90;;;;;;5125549;28;20211;-86
2022/10/19 10:18:53;;;;;;;11.53;6.30;;;14.20;99.90;;;;;;5120869;28;20227;-87
2022/10/19 10:21:31;;;;;;;9.60;6.97;;;14.30;99.90;;;;;;5115264;27;20184;-92
2022/10/19 10:24:04;;;;;;;15.63;6.63;;;14.30;99.90;;;;;;5114700;28;20211;-85
2022/10/19 10:26:39;;;;;;;10.07;6.00;;;14.30;99.90;;;;;;5094321;28;20201;-89
2022/10/19 10:29:17;;;;;;;16.47;7.17;;;14.40;99.90;;;;;;5094118;28;20681;-85
2022/10/19 10:31:48;;;;;;;12.90;6.43;;;14.50;99.90;;;;;;5098052;28;20226;-88
2022/10/19 10:34:22;;;;;;;13.37;6.40;;;14.60;99.90;;;;;;5114847;27;20225;-87
2022/10/19 10:36:51;;;;;;;11.77;5.83;;;14.60;99.90;;;;;;5114136;28;20274;-87
2022/10/19 10:39:20;;;;;;;13.97;6.30;;;14.70;99.90;;;;;;5112135;28;20193;-86
2022/10/19 10:41:48;;;;;;;11.70;5.90;;;14.80;99.90;;;;;;5114405;28;20195;-87
2022/10/19 10:44:25;;;;;;;11.77;6.20;;;14.80;99.90;;;;;;5114650;28;20230;-86
2022/10/19 10:46:56;;;;;;;23.43;7.23;;;14.80;99.90;;;;;;5114666;28;20200;-88
2022/10/19 10:49:33;;;;;;;14.43;7.10;;;14.90;99.90;;;;;;5114484;28;20209;-87
2022/10/19 10:52:04;;;;;;;12.53;7.00;;;14.90;99.90;;;;;;5114848;28;20200;-86
2022/10/19 10:54:33;;;;;;;13.53;7.07;;;15.00;99.90;;;;;;5114272;28;20209;-87
2022/10/19 10:57:12;;;;;;;12.77;6.87;;;15.10;99.90;;;;;;5114425;28;20213;-87
2022/10/19 10:59:55;;;;;;;14.07;6.73;;;15.20;99.90;;;;;;5114046;28;20197;-86
2022/10/19 11:02:40;;;;;;;12.47;6.17;;;15.20;99.90;;;;;;5110606;28;20215;-86
2022/10/19 11:05:12;;;;;;;14.80;6.67;;;15.30;99.90;;;;;;5113904;28;20208;-85
2022/10/19 11:07:44;;;;;;;17.03;6.57;;;15.40;99.90;;;;;;5114074;28;20667;-84
2022/10/19 11:10:23;;;;;;;16.33;7.27;;;15.60;99.90;;;;;;5113756;28;20214;-85
2022/10/19 11:12:55;;;;;;;10.83;6.73;;;15.70;99.90;;;;;;5093175;28;20217;-87
2022/10/19 11:15:27;;;;;;;15.30;6.90;;;15.80;99.90;;;;;;5092275;28;20583;-85
2022/10/19 11:18:03;;;;;;;13.07;6.40;;;15.70;99.90;;;;;;5092024;28;20592;-86
2022/10/19 11:20:48;;;;;;;13.05;7.32;;;15.80;99.90;;;;;;5102743;28;20792;-87
2022/10/19 11:23:20;;;;;;;13.17;6.20;;;15.90;99.90;;;;;;5113927;28;20200;-87
2022/10/19 11:26:03;;;;;;;10.93;6.67;;;15.80;99.90;;;;;;5113897;28;20284;-87
2022/10/19 11:28:46;;;;;;;14.17;7.03;;;16.00;99.90;;;;;;5114658;28;20204;-86
2022/10/19 11:31:18;;;;;;;12.90;6.67;;;16.00;99.90;;;;;;5114861;28;20710;-88
2022/10/19 11:34:02;;;;;;;13.77;6.87;;;16.00;99.90;;;;;;5112475;28;20673;-86
2022/10/19 11:36:46;;;;;;;14.90;6.40;;;15.80;99.90;;;;;;5114507;28;20192;-86
2022/10/19 11:39:39;;;;;;;10.00;6.10;;;15.80;99.90;;;;;;5115085;28;20643;-86
2022/10/19 11:42:14;;;;;;;12.00;6.50;;;16.10;99.90;;;;;;5114822;28;20196;-86
2022/10/19 11:44:55;;;;;;;14.33;6.00;;;16.10;99.90;;;;;;5114158;28;20205;-86
2022/10/19 11:47:51;;;;;;;10.37;5.40;;;16.20;99.90;;;;;;5115164;28;20212;-85
2022/10/19 11:50:32;;;;;;;12.73;6.60;;;16.40;99.90;;;;;;5116810;28;20571;-85
2022/10/19 11:53:05;;;;;;;13.63;6.93;;;16.20;99.90;;;;;;5094635;28;20214;-87
2022/10/19 11:55:45;;;;;;;9.87;6.00;;;16.10;99.90;;;;;;5100359;28;20224;-87
2022/10/19 11:58:45;;;;;;;11.20;6.10;;;16.30;99.90;;;;;;5116564;28;20207;-86
2022/10/19 12:01:21;;;;;;;14.27;6.13;;;16.30;99.90;;;;;;5086272;28;20655;-86
2022/10/19 12:04:21;;;;;;;15.07;6.50;;;16.40;99.90;;;;;;5118984;28;20203;-85
2022/10/19 12:06:58;;;;;;;18.33;6.40;;;16.40;99.90;;;;;;5118461;28;20204;-87
2022/10/19 12:09:41;;;;;;;16.13;6.17;;;16.70;99.90;;;;;;5100392;28;20204;-86
2022/10/19 12:12:29;;;;;;;9.03;6.23;;;16.70;99.90;;;;;;5097517;28;20660;-86
2022/10/19 12:15:25;;;;;;;9.57;5.97;;;16.60;99.90;;;;;;5100903;28;20225;-86
2022/10/19 12:17:55;;;;;;;10.63;6.00;;;16.70;99.90;;;;;;5100012;28;20210;-86
2022/10/19 12:20:30;;;;;;;19.43;7.00;;;16.90;99.90;;;;;;5099370;28;20202;-86
2022/10/19 12:23:01;;;;;;;9.33;6.87;;;17.00;99.90;;;;;;5096330;28;20200;-88
2022/10/19 12:25:40;;;;;;;15.37;6.53;;;17.00;99.90;;;;;;5098817;28;20204;-88
2022/10/19 12:28:10;;;;;;;12.83;6.07;;;16.90;99.90;;;;;;5101183;28;20251;-90
2022/10/19 12:30:43;;;;;;;12.00;6.57;;;17.00;99.90;;;;;;5103984;28;20231;-86
2022/10/19 12:33:18;;;;;;;12.80;6.27;;;16.90;99.90;;;;;;5113503;28;20211;-86
2022/10/19 12:35:58;;;;;;;10.20;6.20;;;16.90;99.90;;;;;;5126703;28;20230;-87
2022/10/19 12:38:35;;;;;;;15.90;6.57;;;17.00;99.90;;;;;;5132193;28;20185;-87
2022/10/19 12:41:24;;;;;;;15.13;6.97;;;16.90;99.90;;;;;;5128024;28;20693;-90
2022/10/19 12:44:05;;;;;;;14.20;6.63;;;17.10;99.90;;;;;;5127633;28;20208;-91
2022/10/19 12:46:39;;;;;;;13.37;6.53;;;17.40;99.90;;;;;;5133721;28;20197;-92
2022/10/19 12:49:35;;;;;;;9.80;6.13;;;17.40;99.90;;;;;;5130123;28;20211;-92
2022/10/19 12:52:07;;;;;;;15.80;6.77;;;17.40;99.90;;;;;;5129086;27;20256;-90
2022/10/19 12:54:37;;;;;;;12.87;6.30;;;17.50;99.90;;;;;;5127155;28;20228;-91
2022/10/19 12:57:23;;;;;;;12.33;7.57;;;17.60;99.90;;;;;;5130017;28;20201;-94